createdAt,value
2018-05-17T00:00:06.266Z,5.90
2018-05-17T00:02:36.191Z,5.70
2018-05-17T00:05:04.515Z,5.57
2018-05-17T00:07:32.717Z,6.10
2018-05-17T00:10:03.908Z,6.60
2018-05-17T00:12:32.055Z,5.90
2018-05-17T00:15:02.480Z,5.97
2018-05-17T00:17:30.312Z,6.50
2018-05-17T00:20:00.746Z,6.03
2018-05-17T00:22:28.291Z,6.27
2018-05-17T00:24:56.476Z,6.60
2018-05-17T00:27:26.026Z,7.23
2018-05-17T00:29:55.084Z,8.30
2018-05-17T00:32:23.555Z,7.67
2018-05-17T00:34:54.636Z,7.30
2018-05-17T00:37:25.119Z,7.97
2018-05-17T00:39:53.188Z,7.60
2018-05-17T00:42:21.426Z,8.80
2018-05-17T00:44:50.110Z,7.50
2018-05-17T00:47:18.903Z,9.33
2018-05-17T00:49:47.010Z,8.47
2018-05-17T00:52:16.645Z,7.40
2018-05-17T00:54:46.593Z,8.40
2018-05-17T00:57:14.854Z,9.00
2018-05-17T00:59:45.778Z,7.77
2018-05-17T01:02:13.302Z,8.20
2018-05-17T01:04:41.534Z,8.70
2018-05-17T01:07:10.190Z,8.77
2018-05-17T01:09:39.115Z,8.73
2018-05-17T01:12:07.973Z,8.13
2018-05-17T01:14:37.265Z,7.77
2018-05-17T01:17:05.957Z,7.63
2018-05-17T01:19:34.373Z,8.27
2018-05-17T01:22:04.847Z,8.90
2018-05-17T01:24:34.197Z,9.40
2018-05-17T01:27:02.885Z,9.27
2018-05-17T01:29:31.931Z,8.53
2018-05-17T01:32:00.941Z,10.13
2018-05-17T01:34:29.634Z,10.40
2018-05-17T01:37:10.799Z,10.73
2018-05-17T01:39:40.286Z,10.17
2018-05-17T01:42:08.341Z,10.70
2018-05-17T01:44:37.144Z,12.13
2018-05-17T01:47:05.468Z,10.17
2018-05-17T01:49:34.161Z,11.43
2018-05-17T01:52:03.274Z,10.90
2018-05-17T01:54:31.906Z,10.57
2018-05-17T01:57:00.745Z,11.80
2018-05-17T01:59:29.240Z,16.70
2018-05-17T02:01:58.362Z,13.43
2018-05-17T02:04:27.587Z,9.83
2018-05-17T02:06:55.195Z,9.50
2018-05-17T02:09:24.102Z,8.73
2018-05-17T02:11:53.269Z,13.53
2018-05-17T02:14:21.447Z,9.20
2018-05-17T02:16:50.145Z,9.23
2018-05-17T02:19:19.868Z,8.73
2018-05-17T02:21:47.965Z,8.83
2018-05-17T02:24:16.193Z,7.57
2018-05-17T02:26:44.473Z,7.90
2018-05-17T02:29:13.113Z,7.57
2018-05-17T02:31:41.958Z,8.60
2018-05-17T02:34:10.121Z,9.07
2018-05-17T02:36:38.726Z,8.00
2018-05-17T02:39:07.899Z,8.53
2018-05-17T02:41:36.636Z,9.20
2018-05-17T02:44:06.737Z,8.80
2018-05-17T02:46:34.965Z,9.13
2018-05-17T02:49:04.571Z,12.97
2018-05-17T02:51:33.581Z,8.80
2018-05-17T02:54:02.410Z,8.60
2018-05-17T02:56:31.030Z,10.80
2018-05-17T02:59:00.203Z,9.17
2018-05-17T03:01:29.235Z,10.37
2018-05-17T03:03:57.543Z,10.13
2018-05-17T03:06:26.142Z,12.70
2018-05-17T03:08:54.439Z,11.40
2018-05-17T03:11:22.749Z,11.97
2018-05-17T03:13:51.532Z,12.17
2018-05-17T03:16:19.778Z,10.10
2018-05-17T03:18:49.053Z,11.73
2018-05-17T03:21:17.311Z,13.77
2018-05-17T03:23:46.717Z,9.60
2018-05-17T03:26:15.486Z,10.77
2018-05-17T03:28:43.909Z,11.20
2018-05-17T03:31:14.117Z,10.90
2018-05-17T03:33:42.294Z,9.97
2018-05-17T03:36:11.192Z,13.53
2018-05-17T03:38:39.528Z,13.57
2018-05-17T03:41:09.368Z,11.40
2018-05-17T03:43:38.268Z,14.47
2018-05-17T03:46:06.430Z,13.13
2018-05-17T03:48:35.967Z,13.70
2018-05-17T03:51:04.931Z,15.23
2018-05-17T03:53:34.814Z,14.53
2018-05-17T03:56:02.406Z,13.73
2018-05-17T03:58:30.441Z,14.87
2018-05-17T04:01:09.800Z,14.33
2018-05-17T04:03:49.070Z,12.70
2018-05-17T04:06:28.578Z,13.73
2018-05-17T04:08:58.400Z,14.67
2018-05-17T04:11:26.541Z,13.40
2018-05-17T04:13:54.835Z,12.87
2018-05-17T04:16:23.730Z,12.33
2018-05-17T04:18:53.918Z,12.03
2018-05-17T04:21:22.177Z,11.27
2018-05-17T04:23:51.518Z,15.13
2018-05-17T04:26:20.543Z,12.07
2018-05-17T04:28:51.096Z,12.20
2018-05-17T04:31:20.632Z,11.57
2018-05-17T04:33:51.054Z,12.23
2018-05-17T04:36:19.648Z,11.00
2018-05-17T04:38:48.569Z,11.63
2018-05-17T04:41:17.611Z,10.73
2018-05-17T04:43:46.433Z,11.23
2018-05-17T04:46:15.824Z,9.43
2018-05-17T04:48:44.999Z,11.33
2018-05-17T04:51:13.513Z,10.53
2018-05-17T04:53:43.529Z,10.33
2018-05-17T04:56:12.022Z,9.93
2018-05-17T04:58:40.976Z,10.23
2018-05-17T05:14:05.118Z,10.73
2018-05-17T05:16:34.114Z,17.80
2018-05-17T05:19:03.562Z,13.57
2018-05-17T05:21:32.494Z,16.40
2018-05-17T05:24:01.542Z,10.50
2018-05-17T05:26:31.189Z,11.73
2018-05-17T05:29:00.874Z,11.37
2018-05-17T05:31:31.163Z,15.37
2018-05-17T05:33:59.900Z,12.80
2018-05-17T05:36:28.508Z,14.27
2018-05-17T05:38:57.162Z,16.27
2018-05-17T05:41:26.499Z,14.10
2018-05-17T05:43:55.384Z,16.10
2018-05-17T05:46:25.300Z,16.43
2018-05-17T05:48:55.754Z,15.50
2018-05-17T05:51:24.725Z,17.10
2018-05-17T05:53:53.541Z,18.50
2018-05-17T05:56:21.715Z,14.67
2018-05-17T05:58:50.039Z,17.50
2018-05-17T06:01:18.461Z,13.97
2018-05-17T06:03:47.615Z,16.57
2018-05-17T06:06:16.531Z,12.93
2018-05-17T06:08:44.814Z,12.67
2018-05-17T06:11:14.570Z,13.40
2018-05-17T06:13:44.162Z,12.90
2018-05-17T06:16:12.485Z,14.90
2018-05-17T06:18:41.492Z,11.90
2018-05-17T06:21:09.873Z,12.40
2018-05-17T06:23:38.283Z,13.23
2018-05-17T06:26:07.002Z,13.47
2018-05-17T06:28:35.494Z,11.10
2018-05-17T06:31:04.490Z,10.87
2018-05-17T06:33:33.857Z,12.33
2018-05-17T06:36:03.641Z,12.67
2018-05-17T06:38:31.567Z,12.50
2018-05-17T06:40:59.674Z,12.80
2018-05-17T06:43:28.505Z,19.37
2018-05-17T06:55:42.643Z,10.50
2018-05-17T06:58:13.914Z,18.20
2018-05-17T07:00:43.038Z,11.73
2018-05-17T07:03:11.951Z,14.20
2018-05-17T07:05:40.683Z,20.43
2018-05-17T07:08:09.820Z,10.60
2018-05-17T07:10:38.401Z,13.47
2018-05-17T07:13:07.201Z,11.67
2018-05-17T07:15:36.555Z,11.07
2018-05-17T07:18:05.194Z,15.10
2018-05-17T07:20:33.198Z,12.53
2018-05-17T07:23:01.360Z,13.30
2018-05-17T07:25:29.530Z,12.50
2018-05-17T07:27:58.398Z,13.40
2018-05-17T07:43:22.982Z,13.83
2018-05-17T07:45:51.379Z,13.17
2018-05-17T07:48:19.541Z,12.57
2018-05-17T07:50:49.149Z,12.70
2018-05-17T07:53:17.872Z,13.87
2018-05-17T07:55:46.353Z,16.00
2018-05-17T07:58:16.119Z,12.20
2018-05-17T08:00:44.794Z,12.30
2018-05-17T08:03:13.782Z,14.23
2018-05-17T08:05:42.617Z,13.63
2018-05-17T08:08:12.655Z,11.93
2018-05-17T08:10:42.198Z,12.33
2018-05-17T08:13:10.559Z,13.93
2018-05-17T08:15:38.114Z,12.50
2018-05-17T08:18:07.370Z,14.53
2018-05-17T08:20:35.440Z,11.83
2018-05-17T08:23:05.317Z,13.03
2018-05-17T08:25:35.553Z,12.10
2018-05-17T08:28:04.600Z,11.53
2018-05-17T08:30:34.954Z,13.63
2018-05-17T08:33:03.851Z,11.63
2018-05-17T08:35:32.885Z,12.83
2018-05-17T08:38:00.922Z,17.07
2018-05-17T08:40:30.116Z,12.47
2018-05-17T08:42:58.559Z,11.87
2018-05-17T08:45:26.990Z,15.67
2018-05-17T08:47:55.216Z,11.97
2018-05-17T08:50:23.705Z,10.33
2018-05-17T08:52:52.011Z,11.00
2018-05-17T08:55:22.594Z,14.13
2018-05-17T08:57:52.014Z,15.43
2018-05-17T09:00:20.762Z,12.27
2018-05-17T09:02:49.479Z,12.03
2018-05-17T09:05:18.302Z,14.00
2018-05-17T09:07:48.249Z,13.00
2018-05-17T09:10:16.629Z,12.97
2018-05-17T09:12:44.720Z,13.30
2018-05-17T09:15:15.989Z,13.70
2018-05-17T09:17:46.661Z,15.33
2018-05-17T09:20:16.236Z,15.97
2018-05-17T09:22:45.313Z,13.60
2018-05-17T09:25:16.101Z,13.43
2018-05-17T09:27:44.870Z,15.33
2018-05-17T09:30:13.167Z,13.93
2018-05-17T09:32:42.099Z,11.87
2018-05-17T09:35:12.729Z,12.87
2018-05-17T09:37:41.188Z,14.53
2018-05-17T09:40:10.130Z,14.90
2018-05-17T09:42:38.539Z,13.60
2018-05-17T09:45:07.704Z,13.50
2018-05-17T09:47:35.351Z,20.07
2018-05-17T09:50:03.999Z,16.37
2018-05-17T09:52:32.787Z,16.97
2018-05-17T09:55:00.900Z,14.53
2018-05-17T09:57:28.921Z,17.37
2018-05-17T09:59:56.727Z,16.47
2018-05-17T10:02:24.916Z,16.93
2018-05-17T10:04:52.867Z,17.00
2018-05-17T10:07:21.200Z,17.67
2018-05-17T10:09:50.875Z,15.37
2018-05-17T10:12:19.561Z,16.83
2018-05-17T10:14:49.221Z,18.27
2018-05-17T10:17:17.909Z,17.17
2018-05-17T10:19:47.408Z,17.73
2018-05-17T10:22:16.142Z,19.33
2018-05-17T10:24:44.577Z,17.77
2018-05-17T10:27:12.851Z,19.57
2018-05-17T10:29:41.003Z,23.13
2018-05-17T10:32:09.816Z,18.13
2018-05-17T10:34:39.219Z,19.57
2018-05-17T10:37:07.242Z,17.87
2018-05-17T10:39:39.557Z,20.47
2018-05-17T10:42:07.761Z,18.13
2018-05-17T10:44:37.253Z,15.93
2018-05-17T10:47:06.738Z,15.70
2018-05-17T10:49:34.915Z,16.73
2018-05-17T10:52:03.238Z,15.63
2018-05-17T10:54:31.906Z,22.47
2018-05-17T10:57:01.401Z,16.13
2018-05-17T10:59:30.104Z,14.37
2018-05-17T11:01:59.731Z,16.03
2018-05-17T11:04:28.603Z,16.40
2018-05-17T11:06:56.800Z,17.93
2018-05-17T11:09:27.283Z,16.10
2018-05-17T11:11:55.461Z,15.20
2018-05-17T11:14:23.479Z,15.60
2018-05-17T11:16:52.419Z,16.17
2018-05-17T11:19:21.319Z,16.53
2018-05-17T11:21:50.388Z,17.23
2018-05-17T11:24:19.295Z,19.00
2018-05-17T11:26:47.419Z,21.33
2018-05-17T11:29:16.144Z,19.00
2018-05-17T11:31:44.219Z,17.53
2018-05-17T11:34:12.935Z,21.03
2018-05-17T11:36:43.344Z,18.60
2018-05-17T11:39:11.902Z,19.80
2018-05-17T11:41:39.505Z,21.33
2018-05-17T11:44:08.633Z,19.77
2018-05-17T11:46:38.194Z,23.40
2018-05-17T11:49:07.351Z,21.37
2018-05-17T11:51:36.258Z,22.70
2018-05-17T11:54:05.387Z,27.03
2018-05-17T11:56:34.789Z,21.07
2018-05-17T11:59:03.739Z,20.40
2018-05-17T12:01:32.639Z,21.53
2018-05-17T12:04:01.970Z,24.67
2018-05-17T12:06:32.605Z,22.10
2018-05-17T12:09:00.765Z,19.17
2018-05-17T12:11:29.154Z,19.30
2018-05-17T12:13:57.943Z,19.53
2018-05-17T12:16:26.049Z,20.87
2018-05-17T12:18:54.811Z,19.40
2018-05-17T12:21:22.921Z,18.10
2018-05-17T12:23:51.988Z,16.60
2018-05-17T12:26:21.574Z,15.97
2018-05-17T12:28:49.138Z,17.67
2018-05-17T12:31:19.700Z,19.23
2018-05-17T12:33:49.771Z,14.60
2018-05-17T12:36:18.096Z,16.07
2018-05-17T12:48:27.549Z,13.20
2018-05-17T12:50:55.237Z,12.63
2018-05-17T13:03:09.350Z,12.27
2018-05-17T13:05:38.654Z,11.70
2018-05-17T13:08:06.701Z,17.60
2018-05-17T13:10:35.857Z,12.13
2018-05-17T13:13:04.148Z,10.73
2018-05-17T13:15:32.258Z,15.77
2018-05-17T13:18:01.467Z,12.07
2018-05-17T13:20:29.476Z,12.00
2018-05-17T13:22:57.766Z,10.37
2018-05-17T13:25:25.351Z,10.40
2018-05-17T13:27:55.274Z,9.97
2018-05-17T13:30:24.330Z,10.27
2018-05-17T13:32:52.906Z,11.23
2018-05-17T13:35:22.961Z,10.70
2018-05-17T13:37:52.035Z,10.87
2018-05-17T13:40:20.163Z,10.63
2018-05-17T13:42:49.456Z,11.07
2018-05-17T13:45:18.006Z,10.70
2018-05-17T13:47:46.998Z,10.03
2018-05-17T13:50:16.251Z,10.77
2018-05-17T13:52:45.129Z,11.63
2018-05-17T13:55:14.143Z,11.20
2018-05-17T13:57:42.598Z,10.90
2018-05-17T14:00:10.998Z,10.90
2018-05-17T14:02:41.093Z,13.67
2018-05-17T14:05:17.239Z,10.50
2018-05-17T14:07:45.298Z,11.60
2018-05-17T14:10:14.224Z,10.47
2018-05-17T14:12:44.016Z,10.23
2018-05-17T14:15:13.262Z,9.63
2018-05-17T14:17:42.230Z,12.60
2018-05-17T14:20:11.559Z,12.23
2018-05-17T14:22:41.000Z,9.30
2018-05-17T14:25:08.558Z,8.70
2018-05-17T14:27:38.004Z,20.63
2018-05-17T14:30:07.463Z,9.50
2018-05-17T14:32:37.418Z,9.70
2018-05-17T14:35:07.789Z,9.37
2018-05-17T14:37:35.841Z,8.13
2018-05-17T14:40:03.689Z,7.17
2018-05-17T14:42:32.133Z,8.93
2018-05-17T14:45:00.994Z,8.40
2018-05-17T14:47:29.152Z,10.13
2018-05-17T14:49:57.988Z,7.53
2018-05-17T14:52:26.149Z,7.53
2018-05-17T14:54:55.270Z,7.97
2018-05-17T14:57:25.036Z,7.37
2018-05-17T14:59:53.109Z,7.17
2018-05-17T15:02:21.351Z,6.73
2018-05-17T15:04:51.643Z,7.33
2018-05-17T15:07:22.080Z,7.90
2018-05-17T15:09:50.426Z,7.33
2018-05-17T15:12:18.569Z,7.60
2018-05-17T15:14:47.888Z,9.80
2018-05-17T15:17:17.530Z,7.57
2018-05-17T15:19:47.026Z,7.70
2018-05-17T15:22:16.144Z,7.57
2018-05-17T15:24:45.137Z,7.70
2018-05-17T15:27:13.440Z,7.27
2018-05-17T15:29:42.449Z,7.90
2018-05-17T15:32:10.706Z,8.53
2018-05-17T15:34:40.709Z,7.43
2018-05-17T15:37:09.624Z,7.80
2018-05-17T15:39:38.700Z,7.33
2018-05-17T15:42:06.407Z,7.77
2018-05-17T15:44:34.729Z,9.60
2018-05-17T15:47:03.145Z,8.30
2018-05-17T15:49:31.795Z,7.43
2018-05-17T15:52:00.831Z,7.20
2018-05-17T15:54:29.225Z,7.23
2018-05-17T15:56:57.977Z,7.70
2018-05-17T15:59:26.216Z,10.83
2018-05-17T16:01:54.897Z,7.40
2018-05-17T16:04:22.678Z,7.93
2018-05-17T16:06:50.234Z,7.43
2018-05-17T16:09:19.267Z,7.47
2018-05-17T16:11:49.794Z,8.13
2018-05-17T16:14:18.259Z,8.60
2018-05-17T16:16:45.843Z,8.57
2018-05-17T16:19:15.408Z,9.27
2018-05-17T16:21:43.742Z,8.43
2018-05-17T16:24:12.125Z,10.20
2018-05-17T16:26:40.502Z,11.57
2018-05-17T16:29:10.406Z,9.30
2018-05-17T16:31:39.286Z,10.10
2018-05-17T16:34:08.202Z,8.80
2018-05-17T16:36:36.654Z,10.00
2018-05-17T16:39:07.109Z,10.20
2018-05-17T16:41:36.063Z,9.67
2018-05-17T16:44:05.004Z,10.37
2018-05-17T16:46:34.168Z,11.13
2018-05-17T16:49:01.990Z,9.37
2018-05-17T16:51:31.719Z,9.90
2018-05-17T16:54:02.212Z,9.97
2018-05-17T16:56:32.446Z,10.40
2018-05-17T16:59:01.240Z,11.40
2018-05-17T17:01:31.283Z,10.90
2018-05-17T17:03:59.906Z,10.13
2018-05-17T17:06:29.228Z,13.17
2018-05-17T17:08:58.284Z,10.83
2018-05-17T17:11:26.751Z,17.37
2018-05-17T17:13:55.762Z,10.97
2018-05-17T17:16:23.317Z,10.77
2018-05-17T17:18:53.317Z,10.63
2018-05-17T17:21:23.574Z,11.67
2018-05-17T17:23:51.231Z,11.20
2018-05-17T17:26:20.127Z,11.10
2018-05-17T17:28:48.557Z,12.03
2018-05-17T17:31:16.947Z,11.60
2018-05-17T17:33:46.028Z,10.87
2018-05-17T17:36:15.041Z,11.97
2018-05-17T17:38:43.876Z,12.70
2018-05-17T17:41:12.970Z,11.20
2018-05-17T17:43:41.115Z,12.57
2018-05-17T17:46:10.583Z,14.10
2018-05-17T17:48:39.506Z,14.53
2018-05-17T17:51:09.302Z,12.70
2018-05-17T17:53:39.043Z,11.50
2018-05-17T17:56:07.722Z,14.43
2018-05-17T17:58:36.234Z,10.73
2018-05-17T18:01:06.226Z,11.73
2018-05-17T18:03:34.870Z,12.27
2018-05-17T18:06:03.219Z,13.17
2018-05-17T18:08:32.321Z,13.00
2018-05-17T18:11:00.875Z,12.30
2018-05-17T18:13:30.299Z,11.73
2018-05-17T18:15:59.798Z,13.93
2018-05-17T18:18:28.478Z,12.50
2018-05-17T18:20:58.518Z,13.30
2018-05-17T18:23:28.519Z,11.20
2018-05-17T18:25:58.296Z,13.20
2018-05-17T18:28:27.850Z,11.67
2018-05-17T18:30:57.584Z,13.00
2018-05-17T18:33:25.847Z,12.53
2018-05-17T18:35:55.807Z,12.60
2018-05-17T18:38:24.529Z,12.40
2018-05-17T18:40:53.424Z,14.03
2018-05-17T18:43:22.707Z,12.47
2018-05-17T18:45:51.110Z,12.80
2018-05-17T18:48:20.135Z,18.00
2018-05-17T18:50:49.357Z,13.60
2018-05-17T18:53:18.501Z,13.00
2018-05-17T18:55:47.420Z,14.10
2018-05-17T18:58:17.209Z,13.23
2018-05-17T19:00:46.245Z,13.30
2018-05-17T19:03:15.672Z,18.27
2018-05-17T19:05:43.721Z,16.07
2018-05-17T19:08:13.188Z,13.83
2018-05-17T19:10:42.105Z,12.87
2018-05-17T19:13:11.254Z,13.97
2018-05-17T19:15:39.657Z,15.77
2018-05-17T19:18:08.865Z,15.33
2018-05-17T19:20:37.164Z,12.70
2018-05-17T19:23:05.079Z,15.43
2018-05-17T19:25:33.992Z,11.80
2018-05-17T19:28:04.264Z,15.20
2018-05-17T19:30:35.162Z,13.23
2018-05-17T19:33:02.901Z,16.20
2018-05-17T19:35:32.369Z,12.83
2018-05-17T19:37:59.930Z,15.47
2018-05-17T19:40:27.494Z,14.20
2018-05-17T19:42:55.830Z,18.30
2018-05-17T19:45:26.696Z,14.13
2018-05-17T19:47:56.003Z,13.77
2018-05-17T19:50:25.350Z,16.03
2018-05-17T19:52:55.286Z,13.80
2018-05-17T19:55:24.665Z,18.20
2018-05-17T19:57:54.745Z,19.40
2018-05-17T20:00:25.556Z,14.87
2018-05-17T20:02:55.870Z,15.80
2018-05-17T20:05:25.963Z,14.80
2018-05-17T20:07:55.573Z,17.40
2018-05-17T20:10:24.701Z,16.90
2018-05-17T20:12:53.656Z,16.00
2018-05-17T20:15:23.526Z,15.83
2018-05-17T20:17:54.523Z,17.63
2018-05-17T20:20:22.966Z,18.63
2018-05-17T20:22:51.895Z,16.00
2018-05-17T20:25:20.606Z,18.40
2018-05-17T20:27:49.626Z,15.13
2018-05-17T20:30:19.135Z,14.90
2018-05-17T20:32:49.514Z,14.47
2018-05-17T20:35:18.218Z,16.00
2018-05-17T20:37:48.450Z,14.53
2018-05-17T20:40:17.286Z,14.27
2018-05-17T20:42:48.566Z,14.80
2018-05-17T20:45:17.641Z,15.23
2018-05-17T20:47:46.570Z,15.50
2018-05-17T20:50:26.471Z,14.73
2018-05-17T20:52:55.861Z,13.07
2018-05-17T20:55:26.069Z,15.30
2018-05-17T20:57:54.561Z,13.37
2018-05-17T21:00:23.750Z,14.63
2018-05-17T21:02:53.382Z,12.90
2018-05-17T21:05:23.461Z,13.40
2018-05-17T21:07:52.425Z,12.27
2018-05-17T21:10:21.107Z,12.03
2018-05-17T21:12:50.028Z,13.20
2018-05-17T21:15:18.274Z,11.50
2018-05-17T21:17:47.695Z,21.80
2018-05-17T21:20:16.297Z,13.07
2018-05-17T21:22:44.295Z,12.50
2018-05-17T21:25:13.566Z,10.97
2018-05-17T21:27:43.035Z,13.60
2018-05-17T21:30:11.416Z,10.30
2018-05-17T21:32:39.528Z,11.43
2018-05-17T21:35:09.589Z,11.80
2018-05-17T21:37:38.809Z,10.53
2018-05-17T21:40:08.103Z,10.90
2018-05-17T21:45:16.204Z,10.60
2018-05-17T21:47:46.351Z,10.90
2018-05-17T21:52:51.752Z,13.87
2018-05-17T21:55:25.639Z,10.97
2018-05-17T21:57:54.291Z,11.27
2018-05-17T22:00:24.904Z,11.00
2018-05-17T22:02:54.373Z,11.03
2018-05-17T22:05:24.565Z,10.93
2018-05-17T22:07:55.363Z,14.33
2018-05-17T22:10:25.203Z,11.50
2018-05-17T22:12:53.292Z,11.33
2018-05-17T22:15:22.179Z,12.03
2018-05-17T22:17:53.492Z,10.97
2018-05-17T22:20:24.369Z,12.50
2018-05-17T22:22:54.419Z,13.87
2018-05-17T22:25:31.771Z,11.77
2018-05-17T22:28:01.775Z,13.40
2018-05-17T22:30:30.780Z,13.57
2018-05-17T22:32:58.934Z,11.90
2018-05-17T22:35:28.192Z,14.13
2018-05-17T22:37:57.118Z,12.40
2018-05-17T22:53:19.971Z,15.97
2018-05-17T22:55:48.933Z,16.50
2018-05-17T22:58:28.970Z,16.33
2018-05-17T23:00:57.890Z,14.73
2018-05-17T23:03:27.570Z,15.20
2018-05-17T23:05:57.241Z,17.20
2018-05-17T23:08:27.385Z,16.03
2018-05-17T23:10:55.979Z,18.73
2018-05-17T23:13:24.231Z,14.77
2018-05-17T23:15:53.627Z,18.40
2018-05-17T23:18:23.797Z,16.20
2018-05-17T23:20:54.057Z,16.90
2018-05-17T23:23:24.970Z,20.60
2018-05-17T23:25:54.451Z,15.77
2018-05-17T23:28:22.121Z,15.27
2018-05-17T23:46:53.012Z,17.07
2018-05-17T23:49:25.960Z,19.37
2018-05-17T23:51:55.029Z,17.97
2018-05-17T23:54:23.981Z,18.70
2018-05-17T23:56:52.403Z,17.90
2018-05-17T23:59:22.334Z,16.87
